WZZ94YZ EYVI-EETN
Flight info
| Callsign | WZZ94YZ |
|---|---|
| Flight time | 1h 1m |
| Altitude | 36000 |
| Route | ATMEZ DCT TAGOL DCT LUNIT DCT TUSAS DCT DOLAT DCT KEMET |
| Aircraft | A320/M-SDE1E2E3FGIJ1J4RWXY/LB1 |
Departure
| Time | 2026-04-30 19:26 |
|---|---|
| Airport | Vilnius International Airport (EYVI) |
Arrival
| Time | 2026-04-30 20:28 |
|---|---|
| Airport | Lennart Meri Tallinn Airport (EETN) |
| Time | Latitude | Longitude | Altitude | Speed | Heading |
|---|---|---|---|---|---|
| 2026-04-30 19:02 | 54.64269 | 25.28542 | 622 ft | 0 kts | 355° |
| 2026-04-30 19:20 | 54.64315 | 25.28582 | 626 ft | 10 kts | 62° |
| 2026-04-30 19:21 | 54.64276 | 25.28669 | 615 ft | 13 kts | 174° |
| 2026-04-30 19:21 | 54.64057 | 25.28703 | 616 ft | 18 kts | 179° |
| 2026-04-30 19:22 | 54.63799 | 25.28534 | 615 ft | 18 kts | 202° |
| 2026-04-30 19:22 | 54.63445 | 25.28288 | 624 ft | 18 kts | 202° |
| 2026-04-30 19:23 | 54.63025 | 25.27998 | 615 ft | 21 kts | 201° |
| 2026-04-30 19:24 | 54.62773 | 25.27822 | 615 ft | 18 kts | 202° |
| 2026-04-30 19:24 | 54.62645 | 25.27733 | 615 ft | 17 kts | 202° |
| 2026-04-30 19:24 | 54.62475 | 25.27707 | 622 ft | 11 kts | 140° |
| 2026-04-30 19:25 | 54.62606 | 25.28013 | 612 ft | 59 kts | 21° |
| 2026-04-30 19:26 | 54.64137 | 25.29047 | 901 ft | 150 kts | 18° |
| 2026-04-30 19:26 | 54.66176 | 25.30446 | 2177 ft | 167 kts | 18° |
| 2026-04-30 19:26 | 54.67326 | 25.31242 | 2542 ft | 190 kts | 18° |
| 2026-04-30 19:27 | 54.70084 | 25.33154 | 3776 ft | 229 kts | 18° |
| 2026-04-30 19:27 | 54.73047 | 25.35235 | 5998 ft | 229 kts | 19° |
| 2026-04-30 19:28 | 54.74520 | 25.36269 | 7094 ft | 229 kts | 20° |
| 2026-04-30 19:28 | 54.77496 | 25.38349 | 9143 ft | 233 kts | 20° |
| 2026-04-30 19:29 | 54.80583 | 25.39956 | 11029 ft | 236 kts | 5° |
| 2026-04-30 19:29 | 54.82281 | 25.39822 | 11596 ft | 255 kts | 351° |
| 2026-04-30 19:30 | 54.88073 | 25.37501 | 13132 ft | 302 kts | 349° |
| 2026-04-30 19:30 | 54.92208 | 25.35812 | 14713 ft | 308 kts | 350° |
| 2026-04-30 19:31 | 54.96414 | 25.34101 | 16177 ft | 313 kts | 351° |
| 2026-04-30 19:31 | 54.98540 | 25.33240 | 16889 ft | 314 kts | 351° |
| 2026-04-30 19:31 | 55.02817 | 25.31503 | 18423 ft | 318 kts | 352° |
| 2026-04-30 19:32 | 55.04979 | 25.30622 | 19089 ft | 320 kts | 352° |
| 2026-04-30 19:32 | 55.07158 | 25.29737 | 19763 ft | 322 kts | 352° |
| 2026-04-30 19:32 | 55.09340 | 25.28850 | 20452 ft | 323 kts | 352° |
| 2026-04-30 19:32 | 55.11537 | 25.27955 | 21131 ft | 324 kts | 353° |
| 2026-04-30 19:33 | 55.13741 | 25.27057 | 21785 ft | 326 kts | 353° |
| 2026-04-30 19:33 | 55.15954 | 25.26155 | 22410 ft | 328 kts | 353° |
| 2026-04-30 19:33 | 55.18182 | 25.25244 | 23030 ft | 329 kts | 353° |
| 2026-04-30 19:33 | 55.20418 | 25.24326 | 23655 ft | 331 kts | 353° |
| 2026-04-30 19:34 | 55.22667 | 25.23403 | 24204 ft | 333 kts | 354° |
| 2026-04-30 19:34 | 55.24926 | 25.22476 | 24723 ft | 334 kts | 354° |
| 2026-04-30 19:34 | 55.29465 | 25.20624 | 25787 ft | 334 kts | 356° |
| 2026-04-30 19:35 | 55.31720 | 25.20284 | 26318 ft | 327 kts | 6° |
| 2026-04-30 19:35 | 55.33985 | 25.20532 | 26855 ft | 326 kts | 8° |
| 2026-04-30 19:35 | 55.36246 | 25.20810 | 27400 ft | 327 kts | 9° |
| 2026-04-30 19:35 | 55.38516 | 25.21091 | 27918 ft | 327 kts | 9° |
| 2026-04-30 19:36 | 55.40792 | 25.21374 | 28423 ft | 328 kts | 9° |
| 2026-04-30 19:36 | 55.43077 | 25.21656 | 28925 ft | 329 kts | 9° |
| 2026-04-30 19:36 | 55.47674 | 25.22112 | 29841 ft | 335 kts | 4° |
| 2026-04-30 19:37 | 55.50010 | 25.21908 | 30324 ft | 338 kts | 4° |
| 2026-04-30 19:37 | 55.52364 | 25.21698 | 30745 ft | 339 kts | 4° |
| 2026-04-30 19:37 | 55.54729 | 25.21488 | 31122 ft | 342 kts | 4° |
| 2026-04-30 19:37 | 55.57116 | 25.21279 | 31480 ft | 345 kts | 4° |
| 2026-04-30 19:38 | 55.59522 | 25.21069 | 31843 ft | 348 kts | 3° |
| 2026-04-30 19:38 | 55.61947 | 25.20856 | 32215 ft | 350 kts | 3° |
| 2026-04-30 19:38 | 55.64377 | 25.20638 | 32714 ft | 349 kts | 3° |
| 2026-04-30 19:38 | 55.66802 | 25.20420 | 33216 ft | 349 kts | 3° |
| 2026-04-30 19:39 | 55.69224 | 25.20200 | 33711 ft | 348 kts | 3° |
| 2026-04-30 19:39 | 55.71646 | 25.19981 | 34196 ft | 348 kts | 3° |
| 2026-04-30 19:39 | 55.74067 | 25.19762 | 34610 ft | 349 kts | 3° |
| 2026-04-30 19:39 | 55.76497 | 25.19550 | 34931 ft | 351 kts | 3° |
| 2026-04-30 19:40 | 55.78945 | 25.19341 | 35215 ft | 354 kts | 2° |
| 2026-04-30 19:40 | 55.81380 | 25.19133 | 35481 ft | 356 kts | 2° |
| 2026-04-30 19:40 | 55.83860 | 25.18921 | 35769 ft | 359 kts | 2° |
| 2026-04-30 19:40 | 55.86369 | 25.18702 | 36038 ft | 362 kts | 2° |
| 2026-04-30 19:41 | 55.88893 | 25.18471 | 36247 ft | 365 kts | 1° |
| 2026-04-30 19:41 | 55.91421 | 25.18237 | 36299 ft | 362 kts | 1° |
| 2026-04-30 19:41 | 55.96430 | 25.17769 | 36299 ft | 360 kts | 1° |
| 2026-04-30 19:42 | 56.01431 | 25.17321 | 36297 ft | 360 kts | 2° |
| 2026-04-30 19:42 | 56.06416 | 25.16869 | 36299 ft | 358 kts | 2° |
| 2026-04-30 19:43 | 56.11386 | 25.16413 | 36296 ft | 357 kts | 2° |
| 2026-04-30 19:44 | 56.18842 | 25.15801 | 36301 ft | 357 kts | 4° |
| 2026-04-30 19:44 | 56.23766 | 25.15941 | 36305 ft | 356 kts | 6° |
| 2026-04-30 19:45 | 56.28716 | 25.16280 | 36308 ft | 356 kts | 6° |
| 2026-04-30 19:45 | 56.33673 | 25.16561 | 36310 ft | 357 kts | 5° |
| 2026-04-30 19:46 | 56.38631 | 25.16780 | 36312 ft | 357 kts | 5° |
| 2026-04-30 19:46 | 56.43595 | 25.16980 | 36311 ft | 357 kts | 5° |
| 2026-04-30 19:47 | 56.48561 | 25.17097 | 36320 ft | 359 kts | 1° |
| 2026-04-30 19:47 | 56.53543 | 25.16514 | 36313 ft | 359 kts | 1° |
| 2026-04-30 19:48 | 56.58522 | 25.15922 | 36308 ft | 358 kts | 1° |
| 2026-04-30 19:48 | 56.63498 | 25.15329 | 36258 ft | 358 kts | 1° |
| 2026-04-30 19:49 | 56.68472 | 25.14739 | 36273 ft | 358 kts | 1° |
| 2026-04-30 19:49 | 56.75933 | 25.13849 | 36305 ft | 359 kts | 1° |
| 2026-04-30 19:50 | 56.80883 | 25.13247 | 36306 ft | 358 kts | 0° |
| 2026-04-30 19:50 | 56.85853 | 25.12647 | 36305 ft | 358 kts | 0° |
| 2026-04-30 19:51 | 56.90828 | 25.12050 | 36306 ft | 358 kts | 1° |
| 2026-04-30 19:51 | 56.95802 | 25.11450 | 36304 ft | 358 kts | 1° |
| 2026-04-30 19:52 | 57.00776 | 25.10859 | 36304 ft | 358 kts | 1° |
| 2026-04-30 19:52 | 57.05748 | 25.10255 | 36304 ft | 358 kts | 0° |
| 2026-04-30 19:53 | 57.10712 | 25.09648 | 36305 ft | 358 kts | 0° |
| 2026-04-30 19:53 | 57.15676 | 25.09040 | 36305 ft | 357 kts | 0° |
| 2026-04-30 19:54 | 57.20637 | 25.08424 | 36253 ft | 357 kts | 0° |
| 2026-04-30 19:54 | 57.25599 | 25.07816 | 36262 ft | 358 kts | 0° |
| 2026-04-30 19:55 | 57.30568 | 25.07210 | 36267 ft | 358 kts | 0° |
| 2026-04-30 19:55 | 57.35543 | 25.06601 | 36274 ft | 358 kts | 0° |
| 2026-04-30 19:56 | 57.40521 | 25.05993 | 36295 ft | 358 kts | 0° |
| 2026-04-30 19:56 | 57.45493 | 25.05378 | 36290 ft | 358 kts | 0° |
| 2026-04-30 19:57 | 57.50469 | 25.04755 | 36297 ft | 358 kts | 0° |
| 2026-04-30 19:57 | 57.55444 | 25.04131 | 36297 ft | 358 kts | 0° |
| 2026-04-30 19:58 | 57.60387 | 25.03508 | 36288 ft | 358 kts | 0° |
| 2026-04-30 19:58 | 57.65363 | 25.02884 | 36285 ft | 358 kts | 0° |
| 2026-04-30 19:59 | 57.70339 | 25.02262 | 36285 ft | 358 kts | 360° |
| 2026-04-30 19:59 | 57.75313 | 25.01635 | 36056 ft | 357 kts | 360° |
| 2026-04-30 20:00 | 57.77786 | 25.01322 | 35765 ft | 355 kts | 360° |
| 2026-04-30 20:00 | 57.80250 | 25.01007 | 35486 ft | 354 kts | 360° |
| 2026-04-30 20:00 | 57.82703 | 25.00699 | 35238 ft | 352 kts | 0° |
| 2026-04-30 20:00 | 57.85137 | 25.00393 | 34988 ft | 349 kts | 0° |
| 2026-04-30 20:01 | 57.89929 | 24.99782 | 34520 ft | 342 kts | 0° |
| 2026-04-30 20:01 | 57.92291 | 24.99479 | 34281 ft | 338 kts | 0° |
| 2026-04-30 20:01 | 57.94610 | 24.99180 | 33932 ft | 331 kts | 0° |
| 2026-04-30 20:02 | 57.99123 | 24.98598 | 33137 ft | 321 kts | 0° |
| 2026-04-30 20:02 | 58.01336 | 24.98128 | 32683 ft | 321 kts | 354° |
| 2026-04-30 20:03 | 58.05629 | 24.95857 | 31793 ft | 318 kts | 350° |
| 2026-04-30 20:03 | 58.07034 | 24.95085 | 31505 ft | 316 kts | 350° |
| 2026-04-30 20:03 | 58.09137 | 24.93928 | 31074 ft | 314 kts | 351° |
| 2026-04-30 20:03 | 58.11926 | 24.92398 | 30531 ft | 310 kts | 351° |
| 2026-04-30 20:04 | 58.13293 | 24.91645 | 30253 ft | 309 kts | 351° |
| 2026-04-30 20:04 | 58.15348 | 24.90514 | 29811 ft | 306 kts | 351° |
| 2026-04-30 20:04 | 58.17383 | 24.89395 | 29412 ft | 303 kts | 351° |
| 2026-04-30 20:05 | 58.21371 | 24.87198 | 28675 ft | 295 kts | 350° |
| 2026-04-30 20:05 | 58.23328 | 24.86119 | 28307 ft | 291 kts | 350° |
| 2026-04-30 20:05 | 58.27167 | 24.84002 | 27595 ft | 283 kts | 350° |
| 2026-04-30 20:06 | 58.29046 | 24.82959 | 27244 ft | 279 kts | 350° |
| 2026-04-30 20:06 | 58.30901 | 24.81934 | 26897 ft | 276 kts | 350° |
| 2026-04-30 20:06 | 58.32732 | 24.80922 | 26555 ft | 274 kts | 350° |
| 2026-04-30 20:06 | 58.34560 | 24.79907 | 26202 ft | 272 kts | 350° |
| 2026-04-30 20:07 | 58.36373 | 24.78891 | 25858 ft | 271 kts | 350° |
| 2026-04-30 20:07 | 58.38178 | 24.77881 | 25508 ft | 270 kts | 350° |
| 2026-04-30 20:07 | 58.41766 | 24.75882 | 24783 ft | 267 kts | 350° |
| 2026-04-30 20:08 | 58.43547 | 24.74894 | 24424 ft | 267 kts | 349° |
| 2026-04-30 20:08 | 58.45325 | 24.73902 | 24057 ft | 266 kts | 349° |
| 2026-04-30 20:08 | 58.47097 | 24.72912 | 23671 ft | 265 kts | 349° |
| 2026-04-30 20:08 | 58.48862 | 24.71925 | 23274 ft | 264 kts | 349° |
| 2026-04-30 20:09 | 58.50596 | 24.70951 | 22907 ft | 263 kts | 349° |
| 2026-04-30 20:09 | 58.52347 | 24.69965 | 22544 ft | 262 kts | 349° |
| 2026-04-30 20:09 | 58.55827 | 24.68003 | 21820 ft | 260 kts | 349° |
| 2026-04-30 20:10 | 58.59278 | 24.66047 | 21101 ft | 258 kts | 349° |
| 2026-04-30 20:10 | 58.60991 | 24.65080 | 20741 ft | 257 kts | 349° |
| 2026-04-30 20:10 | 58.62704 | 24.64112 | 20382 ft | 256 kts | 349° |
| 2026-04-30 20:11 | 58.66184 | 24.62149 | 19464 ft | 266 kts | 348° |
| 2026-04-30 20:11 | 58.68026 | 24.61115 | 19089 ft | 282 kts | 348° |
| 2026-04-30 20:11 | 58.69922 | 24.60083 | 18668 ft | 284 kts | 351° |
| 2026-04-30 20:12 | 58.73796 | 24.60513 | 17848 ft | 282 kts | 18° |
| 2026-04-30 20:12 | 58.75571 | 24.62168 | 17451 ft | 285 kts | 25° |
| 2026-04-30 20:12 | 58.77305 | 24.64009 | 17045 ft | 285 kts | 25° |
| 2026-04-30 20:13 | 58.79039 | 24.65848 | 16653 ft | 284 kts | 25° |
| 2026-04-30 20:13 | 58.80772 | 24.67686 | 16258 ft | 284 kts | 25° |
| 2026-04-30 20:13 | 58.82503 | 24.69523 | 15866 ft | 284 kts | 25° |
| 2026-04-30 20:13 | 58.84233 | 24.71359 | 15477 ft | 284 kts | 25° |
| 2026-04-30 20:14 | 58.85958 | 24.73191 | 15085 ft | 283 kts | 25° |
| 2026-04-30 20:14 | 58.87686 | 24.75026 | 14707 ft | 283 kts | 25° |
| 2026-04-30 20:14 | 58.89417 | 24.76870 | 14316 ft | 283 kts | 25° |
| 2026-04-30 20:14 | 58.91142 | 24.78709 | 13926 ft | 283 kts | 25° |
| 2026-04-30 20:15 | 58.92843 | 24.80522 | 13520 ft | 282 kts | 26° |
| 2026-04-30 20:15 | 58.94580 | 24.82381 | 13143 ft | 281 kts | 26° |
| 2026-04-30 20:15 | 58.96266 | 24.84189 | 12759 ft | 280 kts | 26° |
| 2026-04-30 20:15 | 58.97969 | 24.86007 | 12380 ft | 278 kts | 26° |
| 2026-04-30 20:16 | 58.99657 | 24.87810 | 12027 ft | 277 kts | 26° |
| 2026-04-30 20:16 | 59.01341 | 24.89612 | 11682 ft | 276 kts | 26° |
| 2026-04-30 20:16 | 59.03017 | 24.91415 | 11344 ft | 275 kts | 26° |
| 2026-04-30 20:16 | 59.04684 | 24.93212 | 11000 ft | 274 kts | 26° |
| 2026-04-30 20:17 | 59.06345 | 24.95001 | 10660 ft | 272 kts | 26° |
| 2026-04-30 20:17 | 59.07997 | 24.96777 | 10323 ft | 271 kts | 26° |
| 2026-04-30 20:17 | 59.09643 | 24.98541 | 9973 ft | 269 kts | 26° |
| 2026-04-30 20:17 | 59.11282 | 25.00301 | 9623 ft | 269 kts | 26° |
| 2026-04-30 20:18 | 59.12908 | 25.02052 | 9281 ft | 263 kts | 26° |
| 2026-04-30 20:18 | 59.14461 | 25.03737 | 8970 ft | 248 kts | 26° |
| 2026-04-30 20:18 | 59.15923 | 25.05335 | 8658 ft | 235 kts | 26° |
| 2026-04-30 20:18 | 59.17317 | 25.06858 | 8377 ft | 226 kts | 26° |
| 2026-04-30 20:19 | 59.18675 | 25.08338 | 8101 ft | 222 kts | 26° |
| 2026-04-30 20:19 | 59.20021 | 25.09802 | 7746 ft | 223 kts | 26° |
| 2026-04-30 20:19 | 59.21374 | 25.11266 | 7293 ft | 221 kts | 26° |
| 2026-04-30 20:19 | 59.22709 | 25.12715 | 6847 ft | 218 kts | 26° |
| 2026-04-30 20:20 | 59.24019 | 25.14141 | 6392 ft | 215 kts | 26° |
| 2026-04-30 20:20 | 59.25315 | 25.15554 | 5905 ft | 212 kts | 27° |
| 2026-04-30 20:20 | 59.26596 | 25.16956 | 5447 ft | 210 kts | 26° |
| 2026-04-30 20:20 | 59.27860 | 25.18341 | 4991 ft | 208 kts | 26° |
| 2026-04-30 20:21 | 59.29115 | 25.19714 | 4533 ft | 205 kts | 26° |
| 2026-04-30 20:21 | 59.30350 | 25.21064 | 4144 ft | 201 kts | 26° |
| 2026-04-30 20:21 | 59.31556 | 25.22384 | 3759 ft | 197 kts | 26° |
| 2026-04-30 20:21 | 59.32820 | 25.23410 | 3381 ft | 198 kts | 13° |
| 2026-04-30 20:22 | 59.34195 | 25.23796 | 2990 ft | 202 kts | 359° |
| 2026-04-30 20:22 | 59.35601 | 25.23819 | 2599 ft | 200 kts | 359° |
| 2026-04-30 20:22 | 59.36981 | 25.23853 | 2245 ft | 195 kts | 358° |
| 2026-04-30 20:22 | 59.38285 | 25.23643 | 2202 ft | 181 kts | 343° |
| 2026-04-30 20:23 | 59.39416 | 25.22696 | 2203 ft | 175 kts | 326° |
| 2026-04-30 20:23 | 59.40317 | 25.21141 | 2204 ft | 173 kts | 309° |
| 2026-04-30 20:23 | 59.40927 | 25.19122 | 2207 ft | 173 kts | 292° |
| 2026-04-30 20:23 | 59.41179 | 25.16812 | 2211 ft | 175 kts | 274° |
| 2026-04-30 20:24 | 59.41192 | 25.14419 | 2209 ft | 175 kts | 274° |
| 2026-04-30 20:24 | 59.41205 | 25.12025 | 2209 ft | 176 kts | 274° |
| 2026-04-30 20:24 | 59.41218 | 25.09617 | 2211 ft | 177 kts | 274° |
| 2026-04-30 20:24 | 59.41230 | 25.07209 | 2165 ft | 176 kts | 274° |
| 2026-04-30 20:25 | 59.41249 | 25.02817 | 1797 ft | 147 kts | 273° |
| 2026-04-30 20:25 | 59.41258 | 25.00874 | 1610 ft | 137 kts | 273° |
| 2026-04-30 20:26 | 59.41274 | 24.97310 | 1282 ft | 126 kts | 273° |
| 2026-04-30 20:26 | 59.41289 | 24.93923 | 911 ft | 124 kts | 271° |
| 2026-04-30 20:26 | 59.41295 | 24.92231 | 744 ft | 124 kts | 270° |
| 2026-04-30 20:27 | 59.41308 | 24.88865 | 412 ft | 124 kts | 269° |
| 2026-04-30 20:27 | 59.41319 | 24.85559 | 164 ft | 106 kts | 270° |
| 2026-04-30 20:28 | 59.41323 | 24.84049 | 161 ft | 43 kts | 270° |
| 2026-04-30 20:28 | 59.41327 | 24.82904 | 161 ft | 42 kts | 270° |
| 2026-04-30 20:29 | 59.41326 | 24.81863 | 165 ft | 31 kts | 271° |
| 2026-04-30 20:30 | 59.41340 | 24.80691 | 160 ft | 16 kts | 290° |
| 2026-04-30 20:30 | 59.41528 | 24.80350 | 162 ft | 13 kts | 268° |
| 2026-04-30 20:31 | 59.41587 | 24.80134 | 162 ft | 0 kts | 0° |